createdAt,value
2017-12-29T00:00:57.632Z,12.37
2017-12-29T00:03:25.108Z,19.30
2017-12-29T00:05:52.624Z,13.23
2017-12-29T00:08:20.107Z,14.77
2017-12-29T00:10:48.494Z,18.83
2017-12-29T00:13:15.995Z,14.77
2017-12-29T00:15:43.480Z,17.20
2017-12-29T00:18:10.967Z,16.50
2017-12-29T00:20:38.445Z,19.20
2017-12-29T00:23:05.935Z,15.77
2017-12-29T00:25:33.476Z,14.33
2017-12-29T00:28:00.967Z,16.60
2017-12-29T00:30:28.453Z,21.20
2017-12-29T00:32:55.918Z,18.43
2017-12-29T00:35:23.432Z,12.27
2017-12-29T00:37:50.924Z,14.20
2017-12-29T00:40:18.373Z,15.17
2017-12-29T00:42:45.893Z,16.70
2017-12-29T00:45:13.384Z,16.37
2017-12-29T00:47:40.881Z,10.80
2017-12-29T00:50:08.372Z,14.83
2017-12-29T00:52:35.868Z,11.70
2017-12-29T00:55:03.357Z,15.53
2017-12-29T00:57:30.855Z,15.53
2017-12-29T00:59:58.337Z,16.57
2017-12-29T01:02:25.806Z,13.00
2017-12-29T01:04:53.273Z,14.37
2017-12-29T01:07:20.756Z,18.13
2017-12-29T01:09:48.296Z,18.20
2017-12-29T01:12:15.751Z,15.17
2017-12-29T01:14:43.225Z,13.57
2017-12-29T01:17:10.680Z,17.50
2017-12-29T01:19:38.479Z,20.77
2017-12-29T01:22:05.937Z,16.63
2017-12-29T01:24:33.396Z,11.60
2017-12-29T01:27:00.904Z,14.13
2017-12-29T01:29:28.392Z,19.53
2017-12-29T01:31:55.867Z,14.20
2017-12-29T01:34:23.355Z,14.40
2017-12-29T01:36:50.841Z,16.80
2017-12-29T01:39:18.324Z,18.10
2017-12-29T01:41:46.479Z,12.73
2017-12-29T01:44:13.964Z,15.67
2017-12-29T01:46:41.444Z,13.77
2017-12-29T01:49:08.947Z,17.43
2017-12-29T01:51:36.435Z,18.57
2017-12-29T01:54:03.933Z,17.20
2017-12-29T01:56:31.444Z,24.17
2017-12-29T01:58:58.932Z,16.80
2017-12-29T02:01:26.422Z,18.73
2017-12-29T02:03:53.932Z,16.13
2017-12-29T02:06:21.402Z,18.63
2017-12-29T02:08:48.883Z,17.63
2017-12-29T02:11:16.392Z,13.23
2017-12-29T02:13:43.879Z,12.57
2017-12-29T02:16:11.347Z,15.13
2017-12-29T02:18:38.825Z,18.73
2017-12-29T02:21:06.327Z,18.67
2017-12-29T02:23:33.824Z,16.83
2017-12-29T02:26:02.152Z,14.87
2017-12-29T02:28:29.617Z,15.03
2017-12-29T02:30:57.105Z,12.57
2017-12-29T02:33:24.604Z,25.97
2017-12-29T02:35:52.070Z,17.90
2017-12-29T02:38:19.556Z,12.93
2017-12-29T02:40:47.030Z,20.27
2017-12-29T02:43:14.522Z,18.67
2017-12-29T02:45:42.005Z,11.47
2017-12-29T02:48:09.475Z,16.07
2017-12-29T02:50:36.941Z,19.70
2017-12-29T02:53:04.444Z,20.97
2017-12-29T02:55:31.917Z,18.00
2017-12-29T02:57:59.392Z,18.70
2017-12-29T03:00:26.854Z,21.90
2017-12-29T03:02:54.339Z,14.63
2017-12-29T03:05:21.848Z,14.03
2017-12-29T03:07:49.280Z,15.73
2017-12-29T03:10:16.736Z,13.83
2017-12-29T03:12:44.218Z,15.93
2017-12-29T03:15:11.677Z,15.63
2017-12-29T03:17:39.129Z,16.80
2017-12-29T03:20:06.609Z,14.53
2017-12-29T03:22:34.082Z,20.77
2017-12-29T03:25:01.534Z,13.37
2017-12-29T03:27:28.992Z,16.90
2017-12-29T03:29:56.485Z,14.50
2017-12-29T03:32:23.942Z,16.37
2017-12-29T03:34:51.423Z,14.07
2017-12-29T03:37:18.889Z,22.13
2017-12-29T03:39:46.376Z,15.13
2017-12-29T03:42:13.876Z,12.83
2017-12-29T03:44:41.945Z,16.37
2017-12-29T03:47:09.409Z,18.27
2017-12-29T03:49:36.909Z,15.13
2017-12-29T03:52:04.390Z,17.93
2017-12-29T03:54:31.858Z,14.20
2017-12-29T03:56:59.351Z,13.77
2017-12-29T03:59:26.841Z,12.23
2017-12-29T04:01:54.329Z,16.43
2017-12-29T04:04:21.793Z,17.37
2017-12-29T04:06:49.277Z,13.87
2017-12-29T04:09:16.757Z,15.73
2017-12-29T04:11:44.269Z,13.63
2017-12-29T04:14:11.725Z,13.27
2017-12-29T04:16:39.223Z,15.83
2017-12-29T04:19:10.179Z,15.73
2017-12-29T04:21:37.691Z,17.60
2017-12-29T04:24:05.191Z,24.10
2017-12-29T04:26:32.680Z,16.83
2017-12-29T04:29:00.156Z,17.77
2017-12-29T04:31:27.635Z,18.10
2017-12-29T04:33:55.123Z,16.53
2017-12-29T04:36:22.622Z,15.07
2017-12-29T04:38:50.104Z,15.50
2017-12-29T04:41:17.569Z,15.00
2017-12-29T04:43:45.063Z,15.90
2017-12-29T04:46:12.539Z,15.33
2017-12-29T04:48:40.010Z,18.57
2017-12-29T04:51:07.484Z,17.40
2017-12-29T04:53:34.960Z,18.90
2017-12-29T04:56:02.456Z,14.77
2017-12-29T04:58:29.956Z,12.47
2017-12-29T05:00:57.458Z,12.67
2017-12-29T05:03:24.951Z,16.10
2017-12-29T05:05:52.430Z,11.97
2017-12-29T05:08:19.893Z,12.73
2017-12-29T05:10:47.375Z,21.20
2017-12-29T05:13:14.867Z,12.17
2017-12-29T05:15:42.359Z,10.90
2017-12-29T05:18:09.839Z,14.23
2017-12-29T05:20:37.333Z,16.03
2017-12-29T05:23:04.820Z,14.30
2017-12-29T05:25:32.291Z,11.57
2017-12-29T05:27:59.761Z,15.97
2017-12-29T05:30:27.273Z,19.20
2017-12-29T05:32:54.736Z,16.23
2017-12-29T05:35:22.220Z,9.73
2017-12-29T05:37:49.711Z,15.73
2017-12-29T05:40:17.209Z,13.70
2017-12-29T05:42:44.694Z,14.73
2017-12-29T05:45:12.188Z,12.00
2017-12-29T05:47:39.693Z,14.67
2017-12-29T05:50:07.163Z,13.83
2017-12-29T05:52:34.660Z,20.40
2017-12-29T05:55:02.141Z,16.90
2017-12-29T05:57:29.640Z,14.63
2017-12-29T05:59:57.115Z,10.53
2017-12-29T06:02:24.603Z,16.03
2017-12-29T06:04:52.091Z,15.97
2017-12-29T06:07:19.573Z,12.90
2017-12-29T06:09:47.056Z,15.90
2017-12-29T06:12:14.551Z,15.17
2017-12-29T06:14:42.040Z,13.53
2017-12-29T06:17:09.527Z,11.23
2017-12-29T06:19:37.001Z,18.03
2017-12-29T06:22:04.482Z,17.97
2017-12-29T06:24:31.992Z,13.23
2017-12-29T06:26:59.465Z,25.37
2017-12-29T06:29:26.967Z,10.63
2017-12-29T06:31:54.431Z,12.13
2017-12-29T06:34:21.916Z,18.00
2017-12-29T06:36:49.386Z,18.07
2017-12-29T06:39:16.854Z,12.70
2017-12-29T06:41:44.337Z,18.00
2017-12-29T06:44:11.837Z,17.77
2017-12-29T06:46:39.316Z,19.00
2017-12-29T06:49:06.789Z,16.23
2017-12-29T06:51:34.269Z,19.67
2017-12-29T06:54:01.778Z,16.20
2017-12-29T06:56:29.271Z,16.20
2017-12-29T06:58:56.750Z,13.67
2017-12-29T07:01:24.269Z,20.57
2017-12-29T07:03:51.880Z,14.80
2017-12-29T07:06:19.411Z,15.73
2017-12-29T07:08:46.873Z,8.27
2017-12-29T07:11:14.354Z,9.00
2017-12-29T07:13:41.809Z,14.30
2017-12-29T07:16:09.291Z,10.23
2017-12-29T07:18:36.745Z,13.00
2017-12-29T07:21:04.239Z,10.70
2017-12-29T07:23:31.744Z,15.07
2017-12-29T07:25:59.250Z,14.50
2017-12-29T07:28:26.714Z,11.37
2017-12-29T07:30:54.226Z,12.23
2017-12-29T07:33:21.728Z,13.70
2017-12-29T07:35:49.206Z,15.43
2017-12-29T07:38:16.685Z,12.17
2017-12-29T07:40:44.264Z,10.73
2017-12-29T07:43:11.734Z,13.23
2017-12-29T07:45:39.217Z,18.07
2017-12-29T07:48:06.740Z,9.47
2017-12-29T07:50:34.205Z,13.77
2017-12-29T07:53:01.758Z,18.17
2017-12-29T07:55:29.271Z,13.87
2017-12-29T07:57:56.889Z,10.50
2017-12-29T08:00:24.384Z,10.40
2017-12-29T08:02:51.921Z,11.57
2017-12-29T08:05:19.616Z,11.73
2017-12-29T08:07:47.122Z,14.20
2017-12-29T08:10:14.690Z,15.73
2017-12-29T08:12:42.188Z,12.83
2017-12-29T08:15:09.786Z,14.60
2017-12-29T08:17:37.355Z,16.03
2017-12-29T08:20:04.862Z,11.77
2017-12-29T08:22:32.464Z,16.93
2017-12-29T08:24:59.942Z,23.13
2017-12-29T08:27:27.462Z,20.10
2017-12-29T08:29:54.992Z,11.63
2017-12-29T08:32:23.347Z,15.33
2017-12-29T08:34:50.882Z,17.60
2017-12-29T08:37:18.558Z,18.30
2017-12-29T08:39:46.053Z,14.43
2017-12-29T08:42:13.573Z,17.53
2017-12-29T08:44:41.078Z,16.67
2017-12-29T08:47:08.733Z,15.83
2017-12-29T08:49:36.256Z,14.07
2017-12-29T08:52:03.829Z,13.37
2017-12-29T08:54:31.476Z,18.33
2017-12-29T08:56:59.078Z,17.73
2017-12-29T08:59:26.544Z,14.67
2017-12-29T09:01:54.032Z,12.30
2017-12-29T09:04:21.539Z,10.83
2017-12-29T09:06:49.160Z,15.07
2017-12-29T09:09:16.609Z,11.67
2017-12-29T09:11:44.233Z,10.13
2017-12-29T09:14:11.708Z,12.57
2017-12-29T09:16:39.182Z,14.80
2017-12-29T09:19:06.704Z,16.13
2017-12-29T09:21:34.188Z,16.73
2017-12-29T09:24:01.657Z,14.90
2017-12-29T09:26:29.298Z,12.23
2017-12-29T09:28:56.864Z,13.67
2017-12-29T09:31:24.388Z,9.10
2017-12-29T09:33:51.869Z,12.50
2017-12-29T09:36:19.531Z,10.90
2017-12-29T09:38:47.032Z,12.33
2017-12-29T09:41:14.507Z,10.83
2017-12-29T09:43:41.991Z,11.40
2017-12-29T09:46:09.485Z,13.07
2017-12-29T09:48:36.960Z,13.63
2017-12-29T09:51:04.441Z,8.67
2017-12-29T09:53:31.932Z,13.47
2017-12-29T09:55:59.429Z,20.33
2017-12-29T09:58:26.885Z,10.50
2017-12-29T10:00:54.349Z,10.83
2017-12-29T10:03:21.913Z,12.27
2017-12-29T10:05:49.384Z,10.53
2017-12-29T10:08:17.449Z,10.57
2017-12-29T10:10:44.987Z,10.67
2017-12-29T10:13:12.467Z,9.23
2017-12-29T10:15:39.969Z,14.40
2017-12-29T10:18:11.830Z,8.53
2017-12-29T10:20:39.312Z,7.53
2017-12-29T10:23:06.847Z,11.37
2017-12-29T10:25:36.384Z,6.13
2017-12-29T10:28:03.877Z,13.00
2017-12-29T10:30:31.840Z,7.43
2017-12-29T10:32:59.368Z,11.77
2017-12-29T10:35:27.017Z,7.93
2017-12-29T10:37:54.496Z,13.97
2017-12-29T10:40:22.088Z,13.53
2017-12-29T10:42:49.564Z,7.80
2017-12-29T10:45:18.043Z,8.47
2017-12-29T10:47:45.517Z,14.10
2017-12-29T10:50:13.069Z,15.07
2017-12-29T10:52:40.611Z,9.70
2017-12-29T10:55:08.112Z,9.17
2017-12-29T10:57:35.904Z,6.57
2017-12-29T11:00:03.391Z,10.47
2017-12-29T11:02:30.846Z,9.17
2017-12-29T11:04:58.338Z,6.17
2017-12-29T11:07:25.835Z,7.07
2017-12-29T11:09:54.023Z,3.87
2017-12-29T11:12:21.510Z,4.13
2017-12-29T11:14:49.036Z,6.10
2017-12-29T11:17:17.245Z,6.87
2017-12-29T11:19:44.771Z,7.10
2017-12-29T11:22:12.267Z,6.37
2017-12-29T11:24:40.073Z,5.77
2017-12-29T11:27:07.551Z,7.23
2017-12-29T11:29:35.115Z,4.50
2017-12-29T11:32:02.601Z,7.63
2017-12-29T11:34:30.105Z,10.17
2017-12-29T11:36:57.581Z,11.47
2017-12-29T11:39:25.138Z,8.53
2017-12-29T11:41:52.689Z,15.13
2017-12-29T11:44:20.163Z,15.47
2017-12-29T11:46:48.367Z,9.07
2017-12-29T11:49:15.854Z,3.80
2017-12-29T11:51:43.340Z,7.87
2017-12-29T11:54:10.820Z,10.43
2017-12-29T11:56:40.662Z,9.37
2017-12-29T11:59:08.151Z,5.60
2017-12-29T12:01:35.629Z,5.73
2017-12-29T12:04:03.106Z,11.87
2017-12-29T12:06:30.644Z,6.07
2017-12-29T12:08:58.119Z,6.70
2017-12-29T12:11:25.608Z,8.00
2017-12-29T12:13:53.081Z,7.97
2017-12-29T12:16:20.583Z,5.40
2017-12-29T12:18:48.058Z,6.30
2017-12-29T12:21:15.526Z,5.03
2017-12-29T12:23:43.013Z,6.03
2017-12-29T12:26:10.503Z,8.17
2017-12-29T12:28:37.993Z,9.53
2017-12-29T12:31:05.468Z,6.20
2017-12-29T12:33:32.930Z,2.83
2017-12-29T12:36:01.156Z,4.33
2017-12-29T12:38:28.609Z,6.67
2017-12-29T12:40:56.106Z,5.73
2017-12-29T12:43:23.589Z,5.53
2017-12-29T12:45:51.710Z,6.87
2017-12-29T12:48:19.406Z,4.10
2017-12-29T12:50:47.174Z,3.30
2017-12-29T12:53:14.931Z,6.83
2017-12-29T12:55:42.407Z,4.80
2017-12-29T12:58:09.866Z,4.63
2017-12-29T13:00:37.431Z,8.83
2017-12-29T13:03:04.929Z,9.30
2017-12-29T13:05:32.373Z,8.10
2017-12-29T13:07:59.857Z,3.47
2017-12-29T13:10:27.371Z,2.83
2017-12-29T13:12:54.829Z,3.80
2017-12-29T13:15:22.293Z,4.63
2017-12-29T13:17:49.756Z,4.00
2017-12-29T13:20:17.213Z,4.63
2017-12-29T13:22:44.685Z,5.57
2017-12-29T13:25:12.180Z,7.10
2017-12-29T13:27:39.673Z,5.70
2017-12-29T13:30:07.142Z,9.93
2017-12-29T13:32:34.614Z,5.87
2017-12-29T13:35:02.084Z,3.20
2017-12-29T13:37:29.568Z,3.73
2017-12-29T13:39:57.034Z,6.33
2017-12-29T13:42:24.525Z,9.80
2017-12-29T13:44:52.009Z,3.63
2017-12-29T13:47:19.490Z,4.97
2017-12-29T13:49:46.966Z,5.53
2017-12-29T13:52:14.480Z,4.73
2017-12-29T13:54:41.950Z,3.77
2017-12-29T13:57:09.433Z,5.07
2017-12-29T13:59:36.903Z,3.20
2017-12-29T14:02:04.368Z,4.57
2017-12-29T14:04:31.846Z,3.37
2017-12-29T14:06:59.305Z,6.30
2017-12-29T14:09:26.765Z,3.37
2017-12-29T14:11:54.238Z,7.90
2017-12-29T14:14:21.710Z,5.97
2017-12-29T14:16:49.161Z,7.87
2017-12-29T14:19:16.637Z,3.33
2017-12-29T14:21:44.104Z,5.37
2017-12-29T14:24:11.593Z,4.60
2017-12-29T14:26:39.050Z,4.37
2017-12-29T14:29:06.512Z,4.77
2017-12-29T14:31:34.146Z,2.97
2017-12-29T14:34:01.619Z,6.77
2017-12-29T14:36:29.185Z,3.80
2017-12-29T14:38:56.734Z,5.07
2017-12-29T14:41:24.220Z,3.83
2017-12-29T14:43:51.796Z,7.10
2017-12-29T14:46:19.267Z,4.60
2017-12-29T14:48:46.728Z,8.77
2017-12-29T14:51:14.202Z,5.33
2017-12-29T14:53:41.696Z,6.13
2017-12-29T14:56:09.194Z,3.90
2017-12-29T14:58:36.698Z,4.20
2017-12-29T15:01:04.174Z,4.10
2017-12-29T15:03:31.667Z,4.53
2017-12-29T15:05:59.129Z,4.50
2017-12-29T15:08:26.631Z,4.90
2017-12-29T15:10:54.101Z,6.77
2017-12-29T15:13:21.611Z,3.27
2017-12-29T15:15:49.105Z,5.43
2017-12-29T15:18:16.587Z,7.03
2017-12-29T15:20:44.037Z,7.10
2017-12-29T15:23:11.518Z,6.63
2017-12-29T15:25:38.980Z,5.70
2017-12-29T15:28:07.280Z,6.17
2017-12-29T15:30:34.741Z,3.20
2017-12-29T15:33:02.212Z,6.23
2017-12-29T15:35:29.692Z,3.00
2017-12-29T15:37:57.157Z,3.87
2017-12-29T15:40:25.576Z,6.77
2017-12-29T15:42:53.070Z,11.20
2017-12-29T15:45:20.558Z,17.33
2017-12-29T15:47:48.412Z,14.30
2017-12-29T15:50:15.880Z,5.93
2017-12-29T15:52:43.358Z,6.27
2017-12-29T15:55:10.812Z,3.97
2017-12-29T15:57:38.284Z,7.67
2017-12-29T16:00:05.785Z,5.90
2017-12-29T16:02:34.167Z,4.07
2017-12-29T16:05:01.626Z,3.10
2017-12-29T16:07:29.115Z,5.13
2017-12-29T16:09:56.596Z,3.83
2017-12-29T16:12:24.067Z,3.13
2017-12-29T16:14:51.554Z,4.30
2017-12-29T16:17:19.055Z,3.87
2017-12-29T16:19:46.542Z,5.80
2017-12-29T16:22:14.140Z,6.20
2017-12-29T16:24:41.611Z,6.00
2017-12-29T16:27:09.108Z,5.30
2017-12-29T16:29:36.573Z,4.27
2017-12-29T16:32:04.049Z,5.47
2017-12-29T16:34:31.519Z,7.53
2017-12-29T16:36:58.994Z,4.70
2017-12-29T16:39:26.450Z,4.40
2017-12-29T16:41:53.925Z,6.27
2017-12-29T16:44:21.435Z,5.57
2017-12-29T16:46:48.882Z,8.07
2017-12-29T16:49:16.339Z,4.10
2017-12-29T16:51:43.816Z,3.93
2017-12-29T16:54:11.295Z,5.43
2017-12-29T16:56:38.783Z,7.43
2017-12-29T16:59:06.291Z,3.90
2017-12-29T17:01:33.780Z,3.90
2017-12-29T17:04:01.355Z,8.67
2017-12-29T17:06:28.801Z,5.97
2017-12-29T17:08:56.277Z,5.57
2017-12-29T17:11:23.745Z,6.67
2017-12-29T17:13:51.228Z,8.33
2017-12-29T17:16:18.714Z,5.03
2017-12-29T17:18:46.181Z,8.10
2017-12-29T17:21:13.667Z,5.50
2017-12-29T17:23:41.151Z,4.43
2017-12-29T17:26:08.737Z,9.60
2017-12-29T17:28:36.217Z,5.20
2017-12-29T17:31:03.690Z,4.50
2017-12-29T17:33:31.182Z,4.87
2017-12-29T17:35:58.647Z,5.60
2017-12-29T17:38:26.118Z,5.10
2017-12-29T17:40:53.616Z,6.57
2017-12-29T17:43:21.102Z,4.03
2017-12-29T17:45:48.563Z,9.37
2017-12-29T17:48:16.018Z,4.63
2017-12-29T17:50:43.476Z,5.47
2017-12-29T17:53:10.952Z,11.50
2017-12-29T17:55:38.446Z,5.03
2017-12-29T17:58:05.937Z,5.40
2017-12-29T18:00:33.439Z,6.30
2017-12-29T18:03:00.922Z,6.67
2017-12-29T18:05:28.437Z,5.63
2017-12-29T18:07:55.893Z,5.90
2017-12-29T18:10:23.369Z,8.43
2017-12-29T18:12:50.833Z,7.33
2017-12-29T18:15:18.299Z,8.13
2017-12-29T18:17:46.694Z,6.73
2017-12-29T18:20:14.172Z,7.10
2017-12-29T18:22:41.644Z,6.57
2017-12-29T18:25:09.115Z,4.50
2017-12-29T18:27:36.621Z,7.50
2017-12-29T18:30:04.162Z,8.20
2017-12-29T18:32:31.624Z,6.53
2017-12-29T18:34:59.100Z,6.33
2017-12-29T18:37:26.600Z,5.60
2017-12-29T18:39:54.086Z,6.77
2017-12-29T18:42:21.624Z,4.37
2017-12-29T18:44:49.103Z,5.70
2017-12-29T18:47:16.567Z,6.00
2017-12-29T18:49:44.048Z,6.57
2017-12-29T18:52:11.580Z,6.47
2017-12-29T18:54:39.070Z,9.00
2017-12-29T18:57:06.565Z,4.00
2017-12-29T18:59:34.042Z,7.87
2017-12-29T19:02:01.524Z,7.73
2017-12-29T19:04:29.054Z,7.80
2017-12-29T19:06:56.513Z,5.17
2017-12-29T19:09:23.978Z,3.43
2017-12-29T19:11:51.504Z,8.43
2017-12-29T19:14:18.956Z,4.57
2017-12-29T19:16:47.225Z,6.63
2017-12-29T19:19:14.711Z,5.73
2017-12-29T19:21:42.167Z,9.47
2017-12-29T19:24:09.653Z,4.33
2017-12-29T19:26:37.156Z,7.00
2017-12-29T19:29:04.623Z,3.87
2017-12-29T19:31:32.151Z,5.73
2017-12-29T19:33:59.667Z,3.77
2017-12-29T19:36:27.423Z,8.03
2017-12-29T19:38:54.972Z,10.20
2017-12-29T19:41:22.460Z,5.43
2017-12-29T19:43:49.968Z,5.40
2017-12-29T19:46:17.497Z,3.33
2017-12-29T19:48:45.076Z,8.87
2017-12-29T19:51:12.545Z,4.40
2017-12-29T19:53:40.017Z,5.80
2017-12-29T19:56:08.325Z,7.53
2017-12-29T19:58:35.941Z,6.63
2017-12-29T20:01:03.407Z,7.50
2017-12-29T20:03:30.988Z,6.77
2017-12-29T20:05:58.504Z,5.83
2017-12-29T20:08:26.096Z,4.93
2017-12-29T20:10:53.612Z,6.83
2017-12-29T20:13:21.088Z,7.00
2017-12-29T20:15:48.549Z,6.97
2017-12-29T20:18:16.584Z,4.83
2017-12-29T20:20:44.868Z,5.90
2017-12-29T20:23:12.348Z,10.00
2017-12-29T20:25:39.806Z,4.93
2017-12-29T20:28:07.304Z,5.37
2017-12-29T20:30:34.828Z,5.70
2017-12-29T20:33:02.312Z,6.33
2017-12-29T20:35:29.853Z,5.10
2017-12-29T20:37:57.332Z,5.53
2017-12-29T20:40:24.827Z,6.73
2017-12-29T20:42:52.312Z,5.83
2017-12-29T20:45:19.821Z,4.53
2017-12-29T20:47:47.417Z,4.63
2017-12-29T20:50:14.908Z,9.90
2017-12-29T20:52:42.376Z,6.50
2017-12-29T20:55:09.893Z,6.90
2017-12-29T20:57:37.358Z,6.63
2017-12-29T21:00:04.842Z,6.33
2017-12-29T21:02:32.342Z,6.30
2017-12-29T21:04:59.825Z,5.40
2017-12-29T21:07:27.853Z,6.80
2017-12-29T21:09:55.334Z,8.67
2017-12-29T21:12:23.145Z,6.30
2017-12-29T21:14:51.444Z,10.77
2017-12-29T21:17:18.905Z,7.33
2017-12-29T21:19:46.354Z,5.90
2017-12-29T21:22:13.819Z,5.97
2017-12-29T21:24:41.326Z,5.97
2017-12-29T21:27:08.808Z,6.73
2017-12-29T21:29:36.302Z,8.30
2017-12-29T21:32:03.762Z,8.83
2017-12-29T21:34:31.270Z,4.20
2017-12-29T21:36:58.736Z,9.73
2017-12-29T21:39:26.205Z,7.63
2017-12-29T21:41:53.661Z,6.70
2017-12-29T21:44:21.997Z,7.40
2017-12-29T21:46:49.462Z,5.93
2017-12-29T21:49:16.918Z,4.93
2017-12-29T21:51:44.414Z,6.03
2017-12-29T21:54:11.893Z,4.57
2017-12-29T21:56:39.420Z,5.40
2017-12-29T21:59:06.941Z,5.17
2017-12-29T22:01:34.452Z,6.40
2017-12-29T22:04:01.930Z,8.07
2017-12-29T22:06:29.599Z,8.03
2017-12-29T22:08:57.101Z,5.57
2017-12-29T22:11:24.602Z,5.83
2017-12-29T22:13:52.628Z,6.47
2017-12-29T22:16:20.205Z,5.50
2017-12-29T22:18:47.664Z,6.80
2017-12-29T22:21:15.163Z,6.80
2017-12-29T22:23:42.639Z,8.27
2017-12-29T22:26:10.155Z,5.30
2017-12-29T22:28:37.630Z,11.47
2017-12-29T22:31:05.126Z,6.43
2017-12-29T22:33:33.285Z,11.00
2017-12-29T22:36:00.759Z,7.07
2017-12-29T22:38:28.354Z,9.47
2017-12-29T22:40:55.820Z,8.37
2017-12-29T22:43:23.322Z,7.80
2017-12-29T22:45:50.951Z,7.57
2017-12-29T22:48:18.479Z,5.87
2017-12-29T22:50:45.994Z,6.70
2017-12-29T22:53:13.589Z,11.83
2017-12-29T22:55:41.077Z,6.50
2017-12-29T22:58:08.569Z,8.83
2017-12-29T23:00:36.080Z,7.63
2017-12-29T23:03:03.561Z,9.03
2017-12-29T23:05:31.080Z,5.50
2017-12-29T23:07:58.576Z,4.27
2017-12-29T23:10:26.120Z,6.60
2017-12-29T23:12:53.596Z,8.00
2017-12-29T23:15:21.196Z,6.87
2017-12-29T23:17:48.676Z,4.17
2017-12-29T23:20:16.192Z,3.50
2017-12-29T23:22:43.734Z,3.70
2017-12-29T23:25:11.272Z,3.20
2017-12-29T23:27:38.753Z,2.97
2017-12-29T23:30:07.141Z,3.33
2017-12-29T23:32:34.601Z,3.40
2017-12-29T23:35:02.087Z,4.67
2017-12-29T23:37:29.667Z,3.20
2017-12-29T23:39:57.137Z,4.00
2017-12-29T23:42:24.890Z,3.40
2017-12-29T23:44:52.409Z,5.03
2017-12-29T23:47:23.502Z,3.30
2017-12-29T23:49:51.011Z,3.73
2017-12-29T23:52:18.484Z,4.53
2017-12-29T23:54:45.951Z,3.97
2017-12-29T23:57:13.432Z,4.83
2017-12-29T23:59:40.915Z,3.70
